sensor_id;sensor_type;location;lat;lon;timestamp;P1;durP1;ratioP1;P2;durP2;ratioP2
35304;SDS011;26433;48.034;-1.764;2022-10-17T05:03:55;2.70;;;0.73;;
35304;SDS011;26433;48.034;-1.764;2022-10-17T05:09:00;1.40;;;0.68;;
35304;SDS011;26433;48.034;-1.764;2022-10-17T05:14:04;3.40;;;0.80;;
35304;SDS011;26433;48.034;-1.764;2022-10-17T05:19:10;4.35;;;0.60;;
35304;SDS011;26433;48.034;-1.764;2022-10-17T05:24:15;2.10;;;0.88;;
35304;SDS011;26433;48.034;-1.764;2022-10-17T05:29:18;1.37;;;0.70;;
35304;SDS011;26433;48.034;-1.764;2022-10-17T05:34:24;5.07;;;0.70;;
35304;SDS011;26433;48.034;-1.764;2022-10-17T05:39:28;3.83;;;0.62;;
35304;SDS011;26433;48.034;-1.764;2022-10-17T05:49:37;0.25;;;0.25;;
35304;SDS011;26433;48.034;-1.764;2022-10-17T05:54:53;1.55;;;0.57;;
35304;SDS011;26433;48.034;-1.764;2022-10-17T05:59:57;3.23;;;0.50;;
35304;SDS011;26433;48.034;-1.764;2022-10-17T06:05:04;2.22;;;0.22;;
35304;SDS011;26433;48.034;-1.764;2022-10-17T06:10:08;0.32;;;0.32;;
35304;SDS011;26433;48.034;-1.764;2022-10-17T06:15:13;3.08;;;0.73;;
35304;SDS011;26433;48.034;-1.764;2022-10-17T06:20:19;0.40;;;0.40;;
35304;SDS011;26433;48.034;-1.764;2022-10-17T06:25:23;7.62;;;0.60;;
35304;SDS011;26433;48.034;-1.764;2022-10-17T06:30:28;3.45;;;0.90;;
35304;SDS011;26433;48.034;-1.764;2022-10-17T06:35:33;0.57;;;0.43;;
35304;SDS011;26433;48.034;-1.764;2022-10-17T06:40:37;0.28;;;0.22;;
35304;SDS011;26433;48.034;-1.764;2022-10-17T06:45:40;0.52;;;0.30;;
35304;SDS011;26433;48.034;-1.764;2022-10-17T06:50:48;3.35;;;0.10;;
35304;SDS011;26433;48.034;-1.764;2022-10-17T06:55:52;0.60;;;0.30;;
35304;SDS011;26433;48.034;-1.764;2022-10-17T07:01:04;1.20;;;0.45;;
35304;SDS011;26433;48.034;-1.764;2022-10-17T07:06:17;2.28;;;0.45;;
35304;SDS011;26433;48.034;-1.764;2022-10-17T07:11:21;1.92;;;0.28;;
35304;SDS011;26433;48.034;-1.764;2022-10-17T07:16:26;0.30;;;0.30;;
35304;SDS011;26433;48.034;-1.764;2022-10-17T07:21:32;1.27;;;0.20;;
35304;SDS011;26433;48.034;-1.764;2022-10-17T07:26:40;0.30;;;0.20;;
35304;SDS011;26433;48.034;-1.764;2022-10-17T07:31:44;0.57;;;0.57;;
35304;SDS011;26433;48.034;-1.764;2022-10-17T07:36:51;0.60;;;0.37;;
35304;SDS011;26433;48.034;-1.764;2022-10-17T07:41:54;1.02;;;0.40;;
35304;SDS011;26433;48.034;-1.764;2022-10-17T07:46:59;0.32;;;0.15;;
35304;SDS011;26433;48.034;-1.764;2022-10-17T07:52:04;3.50;;;0.40;;
35304;SDS011;26433;48.034;-1.764;2022-10-17T07:57:08;3.60;;;0.62;;
35304;SDS011;26433;48.034;-1.764;2022-10-17T08:02:12;3.80;;;0.40;;
35304;SDS011;26433;48.034;-1.764;2022-10-17T08:07:24;0.68;;;0.30;;
35304;SDS011;26433;48.034;-1.764;2022-10-17T08:12:30;3.30;;;0.55;;
35304;SDS011;26433;48.034;-1.764;2022-10-17T08:17:35;0.88;;;0.30;;
35304;SDS011;26433;48.034;-1.764;2022-10-17T08:22:41;1.37;;;0.20;;
35304;SDS011;26433;48.034;-1.764;2022-10-17T08:27:45;3.87;;;0.43;;
35304;SDS011;26433;48.034;-1.764;2022-10-17T08:32:49;0.60;;;0.13;;
35304;SDS011;26433;48.034;-1.764;2022-10-17T08:37:54;0.63;;;0.43;;
35304;SDS011;26433;48.034;-1.764;2022-10-17T08:48:28;1.08;;;0.40;;
35304;SDS011;26433;48.034;-1.764;2022-10-17T08:53:37;1.17;;;0.43;;
35304;SDS011;26433;48.034;-1.764;2022-10-17T08:58:45;0.45;;;0.43;;
35304;SDS011;26433;48.034;-1.764;2022-10-17T09:03:52;0.15;;;0.10;;
35304;SDS011;26433;48.034;-1.764;2022-10-17T09:09:14;2.72;;;0.25;;
35304;SDS011;26433;48.034;-1.764;2022-10-17T09:19:52;0.28;;;0.15;;
35304;SDS011;26433;48.034;-1.764;2022-10-17T09:25:03;0.10;;;0.10;;
35304;SDS011;26433;48.034;-1.764;2022-10-17T09:30:32;1.05;;;0.50;;
35304;SDS011;26433;48.034;-1.764;2022-10-17T09:35:47;4.37;;;0.30;;
35304;SDS011;26433;48.034;-1.764;2022-10-17T09:40:54;0.55;;;0.40;;
35304;SDS011;26433;48.034;-1.764;2022-10-17T09:46:03;4.25;;;0.20;;
35304;SDS011;26433;48.034;-1.764;2022-10-17T09:51:11;3.85;;;0.20;;
35304;SDS011;26433;48.034;-1.764;2022-10-17T09:56:27;1.90;;;0.55;;
35304;SDS011;26433;48.034;-1.764;2022-10-17T10:01:31;1.62;;;0.50;;
35304;SDS011;26433;48.034;-1.764;2022-10-17T10:06:35;1.12;;;0.43;;
35304;SDS011;26433;48.034;-1.764;2022-10-17T10:11:46;8.82;;;0.65;;
35304;SDS011;26433;48.034;-1.764;2022-10-17T10:16:51;1.02;;;0.50;;
35304;SDS011;26433;48.034;-1.764;2022-10-17T10:21:56;0.20;;;0.20;;
35304;SDS011;26433;48.034;-1.764;2022-10-17T10:27:02;0.90;;;0.47;;
35304;SDS011;26433;48.034;-1.764;2022-10-17T10:32:08;1.40;;;0.47;;
35304;SDS011;26433;48.034;-1.764;2022-10-17T10:37:19;1.95;;;0.10;;
35304;SDS011;26433;48.034;-1.764;2022-10-17T10:42:27;0.35;;;0.20;;
35304;SDS011;26433;48.034;-1.764;2022-10-17T10:47:32;3.55;;;0.60;;
35304;SDS011;26433;48.034;-1.764;2022-10-17T10:52:39;1.97;;;0.60;;
35304;SDS011;26433;48.034;-1.764;2022-10-17T10:57:49;1.87;;;0.30;;
35304;SDS011;26433;48.034;-1.764;2022-10-17T11:03:00;0.10;;;0.10;;
35304;SDS011;26433;48.034;-1.764;2022-10-17T11:08:18;0.95;;;0.43;;
35304;SDS011;26433;48.034;-1.764;2022-10-17T11:13:29;0.30;;;0.30;;
35304;SDS011;26433;48.034;-1.764;2022-10-17T11:18:38;1.85;;;0.65;;
35304;SDS011;26433;48.034;-1.764;2022-10-17T11:23:46;3.30;;;0.35;;
35304;SDS011;26433;48.034;-1.764;2022-10-17T11:28:56;0.57;;;0.25;;
35304;SDS011;26433;48.034;-1.764;2022-10-17T11:34:03;0.47;;;0.28;;
35304;SDS011;26433;48.034;-1.764;2022-10-17T11:39:12;0.80;;;0.43;;
35304;SDS011;26433;48.034;-1.764;2022-10-17T11:44:21;0.40;;;0.20;;
35304;SDS011;26433;48.034;-1.764;2022-10-17T11:49:29;0.62;;;0.37;;
35304;SDS011;26433;48.034;-1.764;2022-10-17T11:54:44;0.13;;;0.13;;
35304;SDS011;26433;48.034;-1.764;2022-10-17T11:59:55;0.50;;;0.50;;
35304;SDS011;26433;48.034;-1.764;2022-10-17T12:05:08;1.58;;;0.40;;
35304;SDS011;26433;48.034;-1.764;2022-10-17T12:10:28;1.75;;;0.30;;
35304;SDS011;26433;48.034;-1.764;2022-10-17T12:15:40;2.25;;;0.25;;
35304;SDS011;26433;48.034;-1.764;2022-10-17T12:20:52;0.43;;;0.15;;
35304;SDS011;26433;48.034;-1.764;2022-10-17T12:25:59;0.52;;;0.30;;
35304;SDS011;26433;48.034;-1.764;2022-10-17T12:31:08;2.83;;;0.20;;
35304;SDS011;26433;48.034;-1.764;2022-10-17T12:41:52;3.40;;;0.65;;
35304;SDS011;26433;48.034;-1.764;2022-10-17T12:46:57;2.40;;;0.50;;
35304;SDS011;26433;48.034;-1.764;2022-10-17T12:52:23;0.37;;;0.37;;
35304;SDS011;26433;48.034;-1.764;2022-10-17T12:57:29;0.65;;;0.47;;
35304;SDS011;26433;48.034;-1.764;2022-10-17T13:02:37;0.37;;;0.37;;
35304;SDS011;26433;48.034;-1.764;2022-10-17T13:07:43;3.15;;;0.43;;
35304;SDS011;26433;48.034;-1.764;2022-10-17T13:12:50;1.75;;;0.47;;
35304;SDS011;26433;48.034;-1.764;2022-10-17T13:17:58;1.75;;;0.73;;
35304;SDS011;26433;48.034;-1.764;2022-10-17T13:23:03;0.55;;;0.43;;
35304;SDS011;26433;48.034;-1.764;2022-10-17T13:28:10;3.63;;;0.43;;
35304;SDS011;26433;48.034;-1.764;2022-10-17T13:33:24;6.90;;;0.47;;
35304;SDS011;26433;48.034;-1.764;2022-10-17T13:38:33;6.55;;;0.47;;
35304;SDS011;26433;48.034;-1.764;2022-10-17T13:43:43;0.25;;;0.25;;
35304;SDS011;26433;48.034;-1.764;2022-10-17T13:48:48;0.75;;;0.43;;
35304;SDS011;26433;48.034;-1.764;2022-10-17T13:53:52;0.93;;;0.30;;
35304;SDS011;26433;48.034;-1.764;2022-10-17T13:58:56;3.08;;;0.68;;
35304;SDS011;26433;48.034;-1.764;2022-10-17T14:04:05;0.43;;;0.30;;
35304;SDS011;26433;48.034;-1.764;2022-10-17T14:09:21;1.35;;;0.50;;
35304;SDS011;26433;48.034;-1.764;2022-10-17T14:14:26;9.85;;;0.55;;
35304;SDS011;26433;48.034;-1.764;2022-10-17T14:19:49;1.33;;;0.68;;
35304;SDS011;26433;48.034;-1.764;2022-10-17T14:25:28;0.85;;;0.47;;
35304;SDS011;26433;48.034;-1.764;2022-10-17T14:30:33;1.15;;;0.20;;
35304;SDS011;26433;48.034;-1.764;2022-10-17T14:36:00;0.47;;;0.35;;
35304;SDS011;26433;48.034;-1.764;2022-10-17T14:41:08;0.55;;;0.40;;
35304;SDS011;26433;48.034;-1.764;2022-10-17T14:46:36;0.00;;;0.00;;
35304;SDS011;26433;48.034;-1.764;2022-10-17T14:57:39;1.33;;;0.82;;
35304;SDS011;26433;48.034;-1.764;2022-10-17T15:02:45;2.92;;;1.17;;
35304;SDS011;26433;48.034;-1.764;2022-10-17T15:07:50;0.35;;;0.17;;
35304;SDS011;26433;48.034;-1.764;2022-10-17T15:12:55;2.00;;;0.20;;
35304;SDS011;26433;48.034;-1.764;2022-10-17T15:18:20;5.87;;;0.68;;
35304;SDS011;26433;48.034;-1.764;2022-10-17T15:23:24;2.20;;;0.70;;
35304;SDS011;26433;48.034;-1.764;2022-10-17T15:28:29;0.20;;;0.20;;
35304;SDS011;26433;48.034;-1.764;2022-10-17T15:33:33;2.72;;;0.65;;
35304;SDS011;26433;48.034;-1.764;2022-10-17T15:38:37;4.03;;;0.57;;
35304;SDS011;26433;48.034;-1.764;2022-10-17T15:43:42;0.33;;;0.30;;
35304;SDS011;26433;48.034;-1.764;2022-10-17T15:48:45;1.25;;;0.30;;
35304;SDS011;26433;48.034;-1.764;2022-10-17T15:53:49;2.15;;;0.55;;
35304;SDS011;26433;48.034;-1.764;2022-10-17T15:58:54;1.93;;;0.67;;
35304;SDS011;26433;48.034;-1.764;2022-10-17T16:03:59;0.22;;;0.22;;
35304;SDS011;26433;48.034;-1.764;2022-10-17T16:09:03;1.20;;;0.60;;
35304;SDS011;26433;48.034;-1.764;2022-10-17T16:14:09;0.80;;;0.63;;
35304;SDS011;26433;48.034;-1.764;2022-10-17T16:19:14;1.17;;;0.40;;
35304;SDS011;26433;48.034;-1.764;2022-10-17T16:24:18;2.40;;;0.50;;
35304;SDS011;26433;48.034;-1.764;2022-10-17T16:29:23;6.33;;;0.50;;
35304;SDS011;26433;48.034;-1.764;2022-10-17T16:34:27;0.45;;;0.40;;
35304;SDS011;26433;48.034;-1.764;2022-10-17T16:39:32;2.50;;;0.25;;
35304;SDS011;26433;48.034;-1.764;2022-10-17T16:44:37;2.27;;;0.40;;
35304;SDS011;26433;48.034;-1.764;2022-10-17T16:49:40;1.23;;;0.77;;
35304;SDS011;26433;48.034;-1.764;2022-10-17T16:54:46;1.00;;;0.52;;
35304;SDS011;26433;48.034;-1.764;2022-10-17T16:59:51;0.80;;;0.50;;
35304;SDS011;26433;48.034;-1.764;2022-10-17T17:04:55;0.60;;;0.45;;
35304;SDS011;26433;48.034;-1.764;2022-10-17T17:09:58;0.80;;;0.50;;
35304;SDS011;26433;48.034;-1.764;2022-10-17T17:15:03;2.05;;;0.65;;
35304;SDS011;26433;48.034;-1.764;2022-10-17T17:20:07;0.65;;;0.30;;
35304;SDS011;26433;48.034;-1.764;2022-10-17T17:25:11;0.55;;;0.47;;
35304;SDS011;26433;48.034;-1.764;2022-10-17T17:30:16;15.23;;;1.03;;
35304;SDS011;26433;48.034;-1.764;2022-10-17T17:35:20;2.95;;;0.45;;
35304;SDS011;26433;48.034;-1.764;2022-10-17T17:40:24;0.50;;;0.30;;
35304;SDS011;26433;48.034;-1.764;2022-10-17T17:45:29;2.03;;;0.33;;
35304;SDS011;26433;48.034;-1.764;2022-10-17T17:50:34;2.92;;;1.17;;
35304;SDS011;26433;48.034;-1.764;2022-10-17T17:55:38;0.68;;;0.60;;
35304;SDS011;26433;48.034;-1.764;2022-10-17T18:00:43;0.80;;;0.70;;
35304;SDS011;26433;48.034;-1.764;2022-10-17T18:05:47;1.23;;;0.52;;
35304;SDS011;26433;48.034;-1.764;2022-10-17T18:10:51;1.97;;;0.83;;
35304;SDS011;26433;48.034;-1.764;2022-10-17T18:15:59;2.47;;;1.10;;
35304;SDS011;26433;48.034;-1.764;2022-10-17T18:21:03;3.30;;;1.00;;
35304;SDS011;26433;48.034;-1.764;2022-10-17T18:26:07;0.83;;;0.53;;
35304;SDS011;26433;48.034;-1.764;2022-10-17T18:31:13;2.87;;;0.70;;
35304;SDS011;26433;48.034;-1.764;2022-10-17T18:36:20;1.92;;;1.20;;
35304;SDS011;26433;48.034;-1.764;2022-10-17T18:41:24;0.68;;;0.60;;
35304;SDS011;26433;48.034;-1.764;2022-10-17T18:46:30;2.60;;;1.30;;
35304;SDS011;26433;48.034;-1.764;2022-10-17T18:51:36;2.72;;;0.52;;
35304;SDS011;26433;48.034;-1.764;2022-10-17T18:56:40;1.80;;;0.70;;
35304;SDS011;26433;48.034;-1.764;2022-10-17T19:01:47;8.52;;;0.80;;
35304;SDS011;26433;48.034;-1.764;2022-10-17T19:06:51;3.00;;;1.00;;
35304;SDS011;26433;48.034;-1.764;2022-10-17T19:11:54;0.80;;;0.80;;
35304;SDS011;26433;48.034;-1.764;2022-10-17T19:16:59;2.27;;;1.20;;
35304;SDS011;26433;48.034;-1.764;2022-10-17T19:22:03;2.50;;;1.05;;
35304;SDS011;26433;48.034;-1.764;2022-10-17T19:27:07;1.07;;;0.97;;
35304;SDS011;26433;48.034;-1.764;2022-10-17T19:32:14;2.72;;;1.60;;
35304;SDS011;26433;48.034;-1.764;2022-10-17T19:37:23;1.58;;;1.17;;
35304;SDS011;26433;48.034;-1.764;2022-10-17T19:42:28;1.80;;;1.27;;
35304;SDS011;26433;48.034;-1.764;2022-10-17T19:47:33;1.77;;;1.00;;
35304;SDS011;26433;48.034;-1.764;2022-10-17T19:52:37;2.47;;;1.10;;
35304;SDS011;26433;48.034;-1.764;2022-10-17T19:57:41;5.60;;;1.30;;
35304;SDS011;26433;48.034;-1.764;2022-10-17T20:02:46;6.72;;;1.10;;
35304;SDS011;26433;48.034;-1.764;2022-10-17T20:07:50;2.33;;;1.55;;
35304;SDS011;26433;48.034;-1.764;2022-10-17T20:12:53;6.00;;;1.63;;
35304;SDS011;26433;48.034;-1.764;2022-10-17T20:17:58;1.45;;;1.00;;
35304;SDS011;26433;48.034;-1.764;2022-10-17T20:23:02;2.65;;;1.10;;
35304;SDS011;26433;48.034;-1.764;2022-10-17T20:28:06;1.45;;;0.82;;
35304;SDS011;26433;48.034;-1.764;2022-10-17T20:33:11;3.53;;;1.63;;
35304;SDS011;26433;48.034;-1.764;2022-10-17T20:38:16;2.12;;;1.35;;
35304;SDS011;26433;48.034;-1.764;2022-10-17T20:43:19;1.00;;;0.65;;
35304;SDS011;26433;48.034;-1.764;2022-10-17T20:48:24;1.50;;;1.40;;
35304;SDS011;26433;48.034;-1.764;2022-10-17T20:53:29;4.00;;;1.20;;
35304;SDS011;26433;48.034;-1.764;2022-10-17T20:58:38;3.70;;;1.42;;
35304;SDS011;26433;48.034;-1.764;2022-10-17T21:03:43;2.42;;;1.00;;
35304;SDS011;26433;48.034;-1.764;2022-10-17T21:08:47;1.42;;;1.30;;
35304;SDS011;26433;48.034;-1.764;2022-10-17T21:13:55;2.37;;;1.17;;
35304;SDS011;26433;48.034;-1.764;2022-10-17T21:19:01;0.88;;;0.62;;
35304;SDS011;26433;48.034;-1.764;2022-10-17T21:24:06;1.35;;;0.60;;
35304;SDS011;26433;48.034;-1.764;2022-10-17T21:29:13;1.50;;;1.00;;
35304;SDS011;26433;48.034;-1.764;2022-10-17T21:34:19;1.13;;;1.03;;
35304;SDS011;26433;48.034;-1.764;2022-10-17T21:39:25;2.25;;;0.93;;
35304;SDS011;26433;48.034;-1.764;2022-10-17T21:44:28;0.87;;;0.70;;
35304;SDS011;26433;48.034;-1.764;2022-10-17T21:49:34;2.47;;;1.27;;
35304;SDS011;26433;48.034;-1.764;2022-10-17T21:54:37;1.87;;;1.00;;
35304;SDS011;26433;48.034;-1.764;2022-10-17T21:59:41;4.03;;;2.00;;
35304;SDS011;26433;48.034;-1.764;2022-10-17T22:04:46;1.57;;;1.17;;
35304;SDS011;26433;48.034;-1.764;2022-10-17T22:09:49;3.22;;;1.25;;
35304;SDS011;26433;48.034;-1.764;2022-10-17T22:14:53;1.70;;;1.30;;
35304;SDS011;26433;48.034;-1.764;2022-10-17T22:19:58;3.25;;;1.08;;
35304;SDS011;26433;48.034;-1.764;2022-10-17T22:25:01;1.62;;;1.17;;
